sensor_id;sensor_type;location;lat;lon;timestamp;P1;durP1;ratioP1;P2;durP2;ratioP2
37701;SDS011;23548;51.196;6.838;2023-04-24T00:01:47;2.88;;;1.60;;
37701;SDS011;23548;51.196;6.838;2023-04-24T00:04:13;2.95;;;1.60;;
37701;SDS011;23548;51.196;6.838;2023-04-24T00:06:41;2.10;;;1.63;;
37701;SDS011;23548;51.196;6.838;2023-04-24T00:09:08;3.05;;;1.73;;
37701;SDS011;23548;51.196;6.838;2023-04-24T00:11:37;3.75;;;1.80;;
37701;SDS011;23548;51.196;6.838;2023-04-24T00:14:03;2.58;;;1.80;;
37701;SDS011;23548;51.196;6.838;2023-04-24T00:16:28;2.05;;;1.50;;
37701;SDS011;23548;51.196;6.838;2023-04-24T00:18:54;2.33;;;1.80;;
37701;SDS011;23548;51.196;6.838;2023-04-24T00:21:20;2.97;;;1.70;;
37701;SDS011;23548;51.196;6.838;2023-04-24T00:23:47;2.85;;;1.95;;
37701;SDS011;23548;51.196;6.838;2023-04-24T00:26:13;3.45;;;1.88;;
37701;SDS011;23548;51.196;6.838;2023-04-24T00:28:39;2.60;;;1.98;;
37701;SDS011;23548;51.196;6.838;2023-04-24T00:31:04;4.05;;;1.83;;
37701;SDS011;23548;51.196;6.838;2023-04-24T00:33:30;2.55;;;2.00;;
37701;SDS011;23548;51.196;6.838;2023-04-24T00:35:56;3.17;;;2.03;;
37701;SDS011;23548;51.196;6.838;2023-04-24T00:38:22;4.50;;;2.47;;
37701;SDS011;23548;51.196;6.838;2023-04-24T00:40:48;6.13;;;2.55;;
37701;SDS011;23548;51.196;6.838;2023-04-24T00:43:15;2.83;;;2.33;;
37701;SDS011;23548;51.196;6.838;2023-04-24T00:45:41;3.65;;;2.30;;
37701;SDS011;23548;51.196;6.838;2023-04-24T00:48:07;3.10;;;1.98;;
37701;SDS011;23548;51.196;6.838;2023-04-24T00:50:33;4.38;;;1.90;;
37701;SDS011;23548;51.196;6.838;2023-04-24T00:53:01;3.72;;;2.25;;
37701;SDS011;23548;51.196;6.838;2023-04-24T00:55:27;2.65;;;1.90;;
37701;SDS011;23548;51.196;6.838;2023-04-24T00:57:53;3.33;;;2.53;;
37701;SDS011;23548;51.196;6.838;2023-04-24T01:00:19;4.28;;;2.20;;
37701;SDS011;23548;51.196;6.838;2023-04-24T01:02:47;3.78;;;1.90;;
37701;SDS011;23548;51.196;6.838;2023-04-24T01:05:13;3.33;;;2.00;;
37701;SDS011;23548;51.196;6.838;2023-04-24T01:07:40;3.33;;;2.10;;
37701;SDS011;23548;51.196;6.838;2023-04-24T01:10:11;4.13;;;1.98;;
37701;SDS011;23548;51.196;6.838;2023-04-24T01:12:38;2.95;;;2.33;;
37701;SDS011;23548;51.196;6.838;2023-04-24T01:15:04;3.75;;;2.30;;
37701;SDS011;23548;51.196;6.838;2023-04-24T01:17:31;5.28;;;2.50;;
37701;SDS011;23548;51.196;6.838;2023-04-24T01:19:58;4.38;;;2.85;;
37701;SDS011;23548;51.196;6.838;2023-04-24T01:22:25;6.40;;;3.92;;
37701;SDS011;23548;51.196;6.838;2023-04-24T01:24:51;6.40;;;4.47;;
37701;SDS011;23548;51.196;6.838;2023-04-24T01:27:18;7.03;;;4.65;;
37701;SDS011;23548;51.196;6.838;2023-04-24T01:29:45;7.13;;;5.68;;
37701;SDS011;23548;51.196;6.838;2023-04-24T01:32:12;9.00;;;5.70;;
37701;SDS011;23548;51.196;6.838;2023-04-24T01:34:38;11.23;;;5.82;;
37701;SDS011;23548;51.196;6.838;2023-04-24T01:37:04;10.57;;;6.20;;
37701;SDS011;23548;51.196;6.838;2023-04-24T01:39:30;9.90;;;5.88;;
37701;SDS011;23548;51.196;6.838;2023-04-24T01:41:56;12.73;;;7.28;;
37701;SDS011;23548;51.196;6.838;2023-04-24T01:44:22;14.95;;;6.95;;
37701;SDS011;23548;51.196;6.838;2023-04-24T01:46:48;11.77;;;6.60;;
37701;SDS011;23548;51.196;6.838;2023-04-24T01:49:14;9.38;;;7.13;;
37701;SDS011;23548;51.196;6.838;2023-04-24T01:55:02;10.02;;;6.47;;
37701;SDS011;23548;51.196;6.838;2023-04-24T01:57:30;9.93;;;6.88;;
37701;SDS011;23548;51.196;6.838;2023-04-24T01:59:56;12.38;;;7.18;;
37701;SDS011;23548;51.196;6.838;2023-04-24T02:02:22;11.45;;;7.63;;
37701;SDS011;23548;51.196;6.838;2023-04-24T02:04:55;10.95;;;8.13;;
37701;SDS011;23548;51.196;6.838;2023-04-24T02:07:21;10.85;;;8.05;;
37701;SDS011;23548;51.196;6.838;2023-04-24T02:09:47;14.60;;;8.15;;
37701;SDS011;23548;51.196;6.838;2023-04-24T02:12:12;13.65;;;7.93;;
37701;SDS011;23548;51.196;6.838;2023-04-24T02:14:38;15.02;;;8.93;;
37701;SDS011;23548;51.196;6.838;2023-04-24T02:17:04;11.88;;;8.68;;
37701;SDS011;23548;51.196;6.838;2023-04-24T02:19:30;12.48;;;8.60;;
37701;SDS011;23548;51.196;6.838;2023-04-24T02:21:56;12.95;;;8.77;;
37701;SDS011;23548;51.196;6.838;2023-04-24T02:24:21;13.45;;;9.20;;
37701;SDS011;23548;51.196;6.838;2023-04-24T02:26:47;13.73;;;8.98;;
37701;SDS011;23548;51.196;6.838;2023-04-24T02:29:13;16.02;;;9.75;;
37701;SDS011;23548;51.196;6.838;2023-04-24T02:31:39;15.43;;;9.25;;
37701;SDS011;23548;51.196;6.838;2023-04-24T02:34:05;17.30;;;10.05;;
37701;SDS011;23548;51.196;6.838;2023-04-24T02:36:31;15.88;;;9.45;;
37701;SDS011;23548;51.196;6.838;2023-04-24T02:39:03;17.15;;;9.95;;
37701;SDS011;23548;51.196;6.838;2023-04-24T02:41:29;15.82;;;9.93;;
37701;SDS011;23548;51.196;6.838;2023-04-24T02:43:57;19.85;;;10.38;;
37701;SDS011;23548;51.196;6.838;2023-04-24T02:46:24;19.25;;;10.43;;
37701;SDS011;23548;51.196;6.838;2023-04-24T02:48:50;16.52;;;10.38;;
37701;SDS011;23548;51.196;6.838;2023-04-24T02:51:16;20.10;;;11.32;;
37701;SDS011;23548;51.196;6.838;2023-04-24T02:53:42;18.65;;;11.38;;
37701;SDS011;23548;51.196;6.838;2023-04-24T02:56:08;14.93;;;10.55;;
37701;SDS011;23548;51.196;6.838;2023-04-24T02:58:33;15.13;;;11.35;;
37701;SDS011;23548;51.196;6.838;2023-04-24T03:01:00;18.20;;;11.35;;
37701;SDS011;23548;51.196;6.838;2023-04-24T03:03:26;20.55;;;12.10;;
37701;SDS011;23548;51.196;6.838;2023-04-24T03:05:51;21.60;;;12.13;;
37701;SDS011;23548;51.196;6.838;2023-04-24T03:08:17;19.52;;;11.65;;
37701;SDS011;23548;51.196;6.838;2023-04-24T03:10:43;19.02;;;11.15;;
37701;SDS011;23548;51.196;6.838;2023-04-24T03:13:09;16.00;;;10.82;;
37701;SDS011;23548;51.196;6.838;2023-04-24T03:15:35;18.58;;;11.10;;
37701;SDS011;23548;51.196;6.838;2023-04-24T03:18:01;18.95;;;11.55;;
37701;SDS011;23548;51.196;6.838;2023-04-24T03:20:27;16.90;;;11.00;;
37701;SDS011;23548;51.196;6.838;2023-04-24T03:22:53;19.38;;;10.88;;
37701;SDS011;23548;51.196;6.838;2023-04-24T03:25:19;20.00;;;11.15;;
37701;SDS011;23548;51.196;6.838;2023-04-24T03:27:44;16.70;;;11.30;;
37701;SDS011;23548;51.196;6.838;2023-04-24T03:30:11;18.45;;;11.27;;
37701;SDS011;23548;51.196;6.838;2023-04-24T03:32:36;18.05;;;11.88;;
37701;SDS011;23548;51.196;6.838;2023-04-24T03:35:04;15.32;;;11.07;;
37701;SDS011;23548;51.196;6.838;2023-04-24T03:37:32;17.63;;;10.77;;
37701;SDS011;23548;51.196;6.838;2023-04-24T03:39:57;16.17;;;10.93;;
37701;SDS011;23548;51.196;6.838;2023-04-24T03:42:23;16.35;;;11.30;;
37701;SDS011;23548;51.196;6.838;2023-04-24T03:44:49;19.38;;;10.80;;
37701;SDS011;23548;51.196;6.838;2023-04-24T03:47:15;18.92;;;12.07;;
37701;SDS011;23548;51.196;6.838;2023-04-24T03:49:40;17.70;;;11.35;;
37701;SDS011;23548;51.196;6.838;2023-04-24T03:52:06;16.10;;;11.10;;
37701;SDS011;23548;51.196;6.838;2023-04-24T03:54:32;18.02;;;10.93;;
37701;SDS011;23548;51.196;6.838;2023-04-24T03:56:57;18.02;;;11.32;;
37701;SDS011;23548;51.196;6.838;2023-04-24T03:59:23;16.38;;;11.18;;
37701;SDS011;23548;51.196;6.838;2023-04-24T04:01:49;16.27;;;10.82;;
37701;SDS011;23548;51.196;6.838;2023-04-24T04:04:14;19.13;;;11.27;;
37701;SDS011;23548;51.196;6.838;2023-04-24T04:06:40;22.00;;;12.88;;
37701;SDS011;23548;51.196;6.838;2023-04-24T04:09:06;21.50;;;12.15;;
37701;SDS011;23548;51.196;6.838;2023-04-24T04:11:33;18.77;;;11.77;;
37701;SDS011;23548;51.196;6.838;2023-04-24T04:14:00;19.33;;;11.93;;
37701;SDS011;23548;51.196;6.838;2023-04-24T04:16:26;18.70;;;11.18;;
37701;SDS011;23548;51.196;6.838;2023-04-24T04:18:52;20.27;;;12.18;;
37701;SDS011;23548;51.196;6.838;2023-04-24T04:21:17;18.58;;;12.48;;
37701;SDS011;23548;51.196;6.838;2023-04-24T04:23:43;18.35;;;11.90;;
37701;SDS011;23548;51.196;6.838;2023-04-24T04:26:09;18.35;;;10.85;;
37701;SDS011;23548;51.196;6.838;2023-04-24T04:28:36;17.25;;;11.25;;
37701;SDS011;23548;51.196;6.838;2023-04-24T04:31:04;16.33;;;10.88;;
37701;SDS011;23548;51.196;6.838;2023-04-24T04:33:30;20.90;;;12.25;;
37701;SDS011;23548;51.196;6.838;2023-04-24T04:35:56;21.63;;;11.30;;
37701;SDS011;23548;51.196;6.838;2023-04-24T04:38:22;24.85;;;11.68;;
37701;SDS011;23548;51.196;6.838;2023-04-24T04:40:48;15.45;;;11.18;;
37701;SDS011;23548;51.196;6.838;2023-04-24T04:43:14;24.10;;;12.30;;
37701;SDS011;23548;51.196;6.838;2023-04-24T04:45:41;17.25;;;10.95;;
37701;SDS011;23548;51.196;6.838;2023-04-24T04:48:08;14.48;;;10.68;;
37701;SDS011;23548;51.196;6.838;2023-04-24T04:50:37;18.63;;;11.48;;
37701;SDS011;23548;51.196;6.838;2023-04-24T04:53:02;15.00;;;10.88;;
37701;SDS011;23548;51.196;6.838;2023-04-24T04:55:28;13.52;;;10.40;;
37701;SDS011;23548;51.196;6.838;2023-04-24T04:57:54;14.63;;;10.05;;
37701;SDS011;23548;51.196;6.838;2023-04-24T05:00:21;18.30;;;11.15;;
37701;SDS011;23548;51.196;6.838;2023-04-24T05:02:49;15.18;;;10.45;;
37701;SDS011;23548;51.196;6.838;2023-04-24T05:05:14;16.50;;;11.02;;
37701;SDS011;23548;51.196;6.838;2023-04-24T05:07:42;17.58;;;10.77;;
37701;SDS011;23548;51.196;6.838;2023-04-24T05:10:08;18.95;;;10.65;;
37701;SDS011;23548;51.196;6.838;2023-04-24T05:12:34;14.52;;;9.35;;
37701;SDS011;23548;51.196;6.838;2023-04-24T05:15:00;17.15;;;10.23;;
37701;SDS011;23548;51.196;6.838;2023-04-24T05:17:26;17.85;;;9.48;;
37701;SDS011;23548;51.196;6.838;2023-04-24T05:19:52;15.77;;;8.95;;
37701;SDS011;23548;51.196;6.838;2023-04-24T05:22:17;13.07;;;8.45;;
37701;SDS011;23548;51.196;6.838;2023-04-24T05:24:45;12.77;;;8.43;;
37701;SDS011;23548;51.196;6.838;2023-04-24T05:27:12;13.57;;;8.70;;
37701;SDS011;23548;51.196;6.838;2023-04-24T05:29:37;12.85;;;9.43;;
37701;SDS011;23548;51.196;6.838;2023-04-24T05:32:03;12.15;;;9.02;;
37701;SDS011;23548;51.196;6.838;2023-04-24T05:34:29;14.02;;;9.32;;
37701;SDS011;23548;51.196;6.838;2023-04-24T05:36:55;15.10;;;9.63;;
37701;SDS011;23548;51.196;6.838;2023-04-24T05:39:21;18.42;;;10.48;;
37701;SDS011;23548;51.196;6.838;2023-04-24T05:41:46;18.73;;;11.10;;
37701;SDS011;23548;51.196;6.838;2023-04-24T05:44:12;15.15;;;11.20;;
37701;SDS011;23548;51.196;6.838;2023-04-24T05:46:38;18.77;;;11.23;;
37701;SDS011;23548;51.196;6.838;2023-04-24T05:49:04;17.52;;;11.02;;
37701;SDS011;23548;51.196;6.838;2023-04-24T05:51:30;22.10;;;12.00;;
37701;SDS011;23548;51.196;6.838;2023-04-24T05:53:56;15.98;;;11.30;;
37701;SDS011;23548;51.196;6.838;2023-04-24T05:56:22;19.05;;;12.10;;
37701;SDS011;23548;51.196;6.838;2023-04-24T05:58:48;15.07;;;10.68;;
37701;SDS011;23548;51.196;6.838;2023-04-24T06:01:14;17.27;;;10.55;;
37701;SDS011;23548;51.196;6.838;2023-04-24T06:03:41;15.70;;;10.65;;
37701;SDS011;23548;51.196;6.838;2023-04-24T06:06:07;14.68;;;10.25;;
37701;SDS011;23548;51.196;6.838;2023-04-24T06:08:33;14.27;;;10.55;;
37701;SDS011;23548;51.196;6.838;2023-04-24T06:10:59;16.10;;;10.70;;
37701;SDS011;23548;51.196;6.838;2023-04-24T06:13:25;14.05;;;9.77;;
37701;SDS011;23548;51.196;6.838;2023-04-24T06:15:52;11.10;;;8.30;;
37701;SDS011;23548;51.196;6.838;2023-04-24T06:18:18;13.18;;;8.95;;
37701;SDS011;23548;51.196;6.838;2023-04-24T06:20:45;15.43;;;8.55;;
37701;SDS011;23548;51.196;6.838;2023-04-24T06:23:12;13.70;;;8.63;;
37701;SDS011;23548;51.196;6.838;2023-04-24T06:25:38;13.63;;;8.93;;
37701;SDS011;23548;51.196;6.838;2023-04-24T06:28:04;12.93;;;7.90;;
37701;SDS011;23548;51.196;6.838;2023-04-24T06:30:30;10.95;;;8.13;;
37701;SDS011;23548;51.196;6.838;2023-04-24T06:32:56;13.27;;;8.23;;
37701;SDS011;23548;51.196;6.838;2023-04-24T06:35:22;12.05;;;7.50;;
37701;SDS011;23548;51.196;6.838;2023-04-24T06:37:48;10.75;;;7.65;;
37701;SDS011;23548;51.196;6.838;2023-04-24T06:40:14;13.45;;;7.93;;
37701;SDS011;23548;51.196;6.838;2023-04-24T06:42:39;11.77;;;7.95;;
37701;SDS011;23548;51.196;6.838;2023-04-24T06:45:05;12.55;;;8.00;;
37701;SDS011;23548;51.196;6.838;2023-04-24T06:47:31;12.48;;;8.00;;
37701;SDS011;23548;51.196;6.838;2023-04-24T06:49:57;10.43;;;7.47;;
37701;SDS011;23548;51.196;6.838;2023-04-24T06:52:23;11.63;;;8.07;;
37701;SDS011;23548;51.196;6.838;2023-04-24T06:54:49;13.57;;;8.73;;
37701;SDS011;23548;51.196;6.838;2023-04-24T06:57:15;11.70;;;7.78;;
37701;SDS011;23548;51.196;6.838;2023-04-24T06:59:41;13.13;;;7.65;;
37701;SDS011;23548;51.196;6.838;2023-04-24T07:02:08;12.88;;;7.72;;
37701;SDS011;23548;51.196;6.838;2023-04-24T07:04:33;10.68;;;7.07;;
37701;SDS011;23548;51.196;6.838;2023-04-24T07:06:59;11.07;;;7.45;;
37701;SDS011;23548;51.196;6.838;2023-04-24T07:09:26;11.65;;;6.65;;
37701;SDS011;23548;51.196;6.838;2023-04-24T07:11:52;8.05;;;6.57;;
37701;SDS011;23548;51.196;6.838;2023-04-24T07:14:18;8.10;;;6.05;;
37701;SDS011;23548;51.196;6.838;2023-04-24T07:16:45;9.68;;;5.60;;
37701;SDS011;23548;51.196;6.838;2023-04-24T07:19:11;7.53;;;4.78;;
37701;SDS011;23548;51.196;6.838;2023-04-24T07:21:38;8.30;;;5.13;;
37701;SDS011;23548;51.196;6.838;2023-04-24T07:24:03;5.50;;;3.97;;
37701;SDS011;23548;51.196;6.838;2023-04-24T07:26:29;6.05;;;4.32;;
37701;SDS011;23548;51.196;6.838;2023-04-24T07:28:56;8.63;;;4.38;;
37701;SDS011;23548;51.196;6.838;2023-04-24T07:31:22;6.00;;;4.30;;
37701;SDS011;23548;51.196;6.838;2023-04-24T07:33:48;4.60;;;3.70;;
37701;SDS011;23548;51.196;6.838;2023-04-24T07:36:14;3.72;;;3.35;;
37701;SDS011;23548;51.196;6.838;2023-04-24T07:38:44;5.13;;;3.30;;
37701;SDS011;23548;51.196;6.838;2023-04-24T07:41:10;5.93;;;2.85;;
37701;SDS011;23548;51.196;6.838;2023-04-24T07:43:36;6.50;;;1.90;;
37701;SDS011;23548;51.196;6.838;2023-04-24T07:46:01;1.95;;;1.20;;
37701;SDS011;23548;51.196;6.838;2023-04-24T07:48:27;3.95;;;1.10;;
37701;SDS011;23548;51.196;6.838;2023-04-24T07:50:53;2.47;;;0.77;;
37701;SDS011;23548;51.196;6.838;2023-04-24T07:53:19;0.88;;;0.70;;
37701;SDS011;23548;51.196;6.838;2023-04-24T07:55:45;1.55;;;0.75;;
37701;SDS011;23548;51.196;6.838;2023-04-24T07:58:11;3.10;;;0.80;;
37701;SDS011;23548;51.196;6.838;2023-04-24T08:00:37;5.93;;;1.13;;
37701;SDS011;23548;51.196;6.838;2023-04-24T08:03:03;1.33;;;0.90;;
37701;SDS011;23548;51.196;6.838;2023-04-24T08:05:28;3.35;;;1.15;;
37701;SDS011;23548;51.196;6.838;2023-04-24T08:07:54;1.33;;;0.98;;
37701;SDS011;23548;51.196;6.838;2023-04-24T08:10:20;1.95;;;0.68;;
37701;SDS011;23548;51.196;6.838;2023-04-24T08:12:47;1.23;;;0.70;;
37701;SDS011;23548;51.196;6.838;2023-04-24T08:15:13;1.40;;;0.90;;
37701;SDS011;23548;51.196;6.838;2023-04-24T08:17:39;2.25;;;0.90;;
37701;SDS011;23548;51.196;6.838;2023-04-24T08:20:05;1.13;;;0.98;;
37701;SDS011;23548;51.196;6.838;2023-04-24T08:22:35;1.42;;;1.30;;
37701;SDS011;23548;51.196;6.838;2023-04-24T08:25:01;2.28;;;1.95;;
37701;SDS011;23548;51.196;6.838;2023-04-24T08:27:27;4.45;;;2.67;;
37701;SDS011;23548;51.196;6.838;2023-04-24T08:29:53;4.65;;;3.05;;
37701;SDS011;23548;51.196;6.838;2023-04-24T08:32:19;8.77;;;3.80;;
37701;SDS011;23548;51.196;6.838;2023-04-24T08:34:45;6.28;;;3.95;;
37701;SDS011;23548;51.196;6.838;2023-04-24T08:37:11;8.30;;;5.03;;
37701;SDS011;23548;51.196;6.838;2023-04-24T08:39:37;7.20;;;4.95;;
37701;SDS011;23548;51.196;6.838;2023-04-24T08:42:03;8.85;;;5.15;;
37701;SDS011;23548;51.196;6.838;2023-04-24T08:44:32;8.30;;;5.53;;
37701;SDS011;23548;51.196;6.838;2023-04-24T08:46:59;10.35;;;6.45;;
37701;SDS011;23548;51.196;6.838;2023-04-24T08:49:27;7.28;;;4.75;;
37701;SDS011;23548;51.196;6.838;2023-04-24T08:51:53;9.57;;;6.00;;
37701;SDS011;23548;51.196;6.838;2023-04-24T08:54:20;7.28;;;5.65;;
37701;SDS011;23548;51.196;6.838;2023-04-24T08:56:47;25.60;;;12.98;;
37701;SDS011;23548;51.196;6.838;2023-04-24T08:59:14;9.30;;;5.38;;
37701;SDS011;23548;51.196;6.838;2023-04-24T09:01:40;9.07;;;6.57;;
37701;SDS011;23548;51.196;6.838;2023-04-24T09:04:07;7.90;;;5.22;;
37701;SDS011;23548;51.196;6.838;2023-04-24T09:06:38;9.63;;;5.22;;
37701;SDS011;23548;51.196;6.838;2023-04-24T09:09:04;7.63;;;4.45;;
37701;SDS011;23548;51.196;6.838;2023-04-24T09:11:31;10.18;;;4.68;;
37701;SDS011;23548;51.196;6.838;2023-04-24T09:13:59;10.63;;;4.55;;
37701;SDS011;23548;51.196;6.838;2023-04-24T09:16:26;6.40;;;4.43;;
37701;SDS011;23548;51.196;6.838;2023-04-24T09:18:52;7.47;;;5.20;;
37701;SDS011;23548;51.196;6.838;2023-04-24T09:21:20;9.32;;;5.55;;
37701;SDS011;23548;51.196;6.838;2023-04-24T09:23:47;9.18;;;5.78;;
37701;SDS011;23548;51.196;6.838;2023-04-24T09:26:30;12.13;;;5.93;;
37701;SDS011;23548;51.196;6.838;2023-04-24T09:28:57;12.88;;;6.22;;
37701;SDS011;23548;51.196;6.838;2023-04-24T09:31:23;10.23;;;7.03;;
37701;SDS011;23548;51.196;6.838;2023-04-24T09:33:56;11.45;;;6.72;;
37701;SDS011;23548;51.196;6.838;2023-04-24T09:36:26;8.70;;;5.68;;
37701;SDS011;23548;51.196;6.838;2023-04-24T09:38:59;9.43;;;5.25;;
37701;SDS011;23548;51.196;6.838;2023-04-24T09:41:26;11.43;;;5.93;;
37701;SDS011;23548;51.196;6.838;2023-04-24T09:43:53;15.95;;;6.90;;
37701;SDS011;23548;51.196;6.838;2023-04-24T09:46:32;16.05;;;6.85;;
37701;SDS011;23548;51.196;6.838;2023-04-24T09:49:02;9.68;;;6.60;;
37701;SDS011;23548;51.196;6.838;2023-04-24T09:51:41;12.05;;;6.70;;
37701;SDS011;23548;51.196;6.838;2023-04-24T09:54:13;13.82;;;7.20;;
37701;SDS011;23548;51.196;6.838;2023-04-24T09:56:46;15.55;;;8.52;;
37701;SDS011;23548;51.196;6.838;2023-04-24T09:59:14;15.55;;;9.40;;
37701;SDS011;23548;51.196;6.838;2023-04-24T10:01:42;18.13;;;9.65;;
37701;SDS011;23548;51.196;6.838;2023-04-24T10:04:27;15.68;;;10.15;;
37701;SDS011;23548;51.196;6.838;2023-04-24T10:06:54;18.50;;;10.98;;
37701;SDS011;23548;51.196;6.838;2023-04-24T10:09:22;18.17;;;10.23;;
37701;SDS011;23548;51.196;6.838;2023-04-24T10:11:50;20.33;;;11.02;;
37701;SDS011;23548;51.196;6.838;2023-04-24T10:14:19;18.73;;;11.55;;
37701;SDS011;23548;51.196;6.838;2023-04-24T10:16:47;22.70;;;11.75;;
37701;SDS011;23548;51.196;6.838;2023-04-24T10:19:14;18.98;;;11.02;;
37701;SDS011;23548;51.196;6.838;2023-04-24T10:21:41;18.50;;;11.20;;
37701;SDS011;23548;51.196;6.838;2023-04-24T10:24:14;22.77;;;12.57;;
37701;SDS011;23548;51.196;6.838;2023-04-24T10:26:46;21.08;;;11.63;;
37701;SDS011;23548;51.196;6.838;2023-04-24T10:29:14;22.15;;;11.23;;
37701;SDS011;23548;51.196;6.838;2023-04-24T10:31:43;18.35;;;10.20;;
37701;SDS011;23548;51.196;6.838;2023-04-24T10:34:13;20.35;;;10.00;;
37701;SDS011;23548;51.196;6.838;2023-04-24T10:37:01;21.65;;;10.50;;
37701;SDS011;23548;51.196;6.838;2023-04-24T10:39:27;21.02;;;10.35;;
37701;SDS011;23548;51.196;6.838;2023-04-24T10:41:54;22.10;;;10.18;;
37701;SDS011;23548;51.196;6.838;2023-04-24T10:44:23;17.70;;;10.05;;
37701;SDS011;23548;51.196;6.838;2023-04-24T10:46:52;19.35;;;10.32;;
37701;SDS011;23548;51.196;6.838;2023-04-24T10:49:29;16.85;;;9.07;;
37701;SDS011;23548;51.196;6.838;2023-04-24T10:52:00;23.23;;;9.20;;
37701;SDS011;23548;51.196;6.838;2023-04-24T10:59:45;14.32;;;6.95;;
37701;SDS011;23548;51.196;6.838;2023-04-24T11:02:14;17.05;;;6.53;;
37701;SDS011;23548;51.196;6.838;2023-04-24T11:04:41;17.85;;;6.68;;
37701;SDS011;23548;51.196;6.838;2023-04-24T11:07:10;15.40;;;5.68;;
37701;SDS011;23548;51.196;6.838;2023-04-24T11:09:36;12.85;;;5.57;;
37701;SDS011;23548;51.196;6.838;2023-04-24T11:12:09;11.70;;;5.97;;
37701;SDS011;23548;51.196;6.838;2023-04-24T11:17:30;13.80;;;6.32;;
37701;SDS011;23548;51.196;6.838;2023-04-24T11:22:33;20.27;;;7.15;;
37701;SDS011;23548;51.196;6.838;2023-04-24T11:25:00;16.30;;;6.72;;
37701;SDS011;23548;51.196;6.838;2023-04-24T11:27:29;15.82;;;6.93;;
37701;SDS011;23548;51.196;6.838;2023-04-24T11:37:38;16.17;;;5.68;;
37701;SDS011;23548;51.196;6.838;2023-04-24T11:40:06;15.45;;;6.10;;
37701;SDS011;23548;51.196;6.838;2023-04-24T11:42:33;18.25;;;5.78;;
37701;SDS011;23548;51.196;6.838;2023-04-24T11:45:07;14.48;;;4.97;;
37701;SDS011;23548;51.196;6.838;2023-04-24T11:47:35;16.75;;;5.72;;
37701;SDS011;23548;51.196;6.838;2023-04-24T11:50:02;14.07;;;5.30;;
37701;SDS011;23548;51.196;6.838;2023-04-24T11:52:33;15.35;;;4.90;;
37701;SDS011;23548;51.196;6.838;2023-04-24T11:55:02;15.55;;;5.07;;
37701;SDS011;23548;51.196;6.838;2023-04-24T11:57:28;15.40;;;5.57;;
37701;SDS011;23548;51.196;6.838;2023-04-24T11:59:59;12.20;;;5.30;;
37701;SDS011;23548;51.196;6.838;2023-04-24T12:02:26;11.40;;;5.30;;
37701;SDS011;23548;51.196;6.838;2023-04-24T12:04:54;13.90;;;5.07;;
37701;SDS011;23548;51.196;6.838;2023-04-24T12:07:21;12.48;;;4.85;;
37701;SDS011;23548;51.196;6.838;2023-04-24T12:09:48;12.88;;;4.28;;
37701;SDS011;23548;51.196;6.838;2023-04-24T12:12:28;11.43;;;3.92;;
37701;SDS011;23548;51.196;6.838;2023-04-24T12:14:54;12.30;;;3.75;;
37701;SDS011;23548;51.196;6.838;2023-04-24T12:17:28;11.43;;;4.50;;
37701;SDS011;23548;51.196;6.838;2023-04-24T12:20:04;12.57;;;4.55;;
37701;SDS011;23548;51.196;6.838;2023-04-24T12:22:52;12.57;;;4.43;;
37701;SDS011;23548;51.196;6.838;2023-04-24T12:25:24;14.55;;;4.57;;
37701;SDS011;23548;51.196;6.838;2023-04-24T12:30:29;10.65;;;3.28;;
37701;SDS011;23548;51.196;6.838;2023-04-24T12:32:57;10.35;;;3.50;;
37701;SDS011;23548;51.196;6.838;2023-04-24T12:35:26;10.65;;;3.13;;
37701;SDS011;23548;51.196;6.838;2023-04-24T12:37:53;5.63;;;2.20;;
37701;SDS011;23548;51.196;6.838;2023-04-24T12:40:20;6.63;;;2.58;;
37701;SDS011;23548;51.196;6.838;2023-04-24T12:42:47;10.05;;;2.92;;
37701;SDS011;23548;51.196;6.838;2023-04-24T12:45:15;6.65;;;2.88;;
37701;SDS011;23548;51.196;6.838;2023-04-24T12:47:41;7.30;;;2.30;;
37701;SDS011;23548;51.196;6.838;2023-04-24T12:50:09;5.55;;;2.30;;
37701;SDS011;23548;51.196;6.838;2023-04-24T12:52:36;6.43;;;2.30;;
37701;SDS011;23548;51.196;6.838;2023-04-24T12:55:03;6.45;;;1.90;;
37701;SDS011;23548;51.196;6.838;2023-04-24T12:57:30;6.30;;;1.85;;
37701;SDS011;23548;51.196;6.838;2023-04-24T12:59:57;4.30;;;1.77;;
37701;SDS011;23548;51.196;6.838;2023-04-24T13:02:27;4.60;;;1.90;;
37701;SDS011;23548;51.196;6.838;2023-04-24T13:04:56;2.13;;;1.42;;
37701;SDS011;23548;51.196;6.838;2023-04-24T13:07:22;5.03;;;1.70;;
37701;SDS011;23548;51.196;6.838;2023-04-24T13:09:48;4.20;;;1.90;;
37701;SDS011;23548;51.196;6.838;2023-04-24T13:12:15;5.82;;;2.00;;
37701;SDS011;23548;51.196;6.838;2023-04-24T13:14:41;5.28;;;2.08;;
37701;SDS011;23548;51.196;6.838;2023-04-24T13:17:07;5.95;;;2.45;;
37701;SDS011;23548;51.196;6.838;2023-04-24T13:19:37;5.93;;;2.30;;
37701;SDS011;23548;51.196;6.838;2023-04-24T13:22:04;7.95;;;2.20;;
37701;SDS011;23548;51.196;6.838;2023-04-24T13:24:31;3.47;;;1.65;;
37701;SDS011;23548;51.196;6.838;2023-04-24T13:26:58;5.60;;;1.88;;
37701;SDS011;23548;51.196;6.838;2023-04-24T13:29:25;6.93;;;2.42;;
37701;SDS011;23548;51.196;6.838;2023-04-24T13:31:51;7.07;;;2.22;;
37701;SDS011;23548;51.196;6.838;2023-04-24T13:34:19;5.35;;;2.58;;
37701;SDS011;23548;51.196;6.838;2023-04-24T13:36:44;7.68;;;2.20;;
37701;SDS011;23548;51.196;6.838;2023-04-24T13:39:11;6.63;;;2.28;;
37701;SDS011;23548;51.196;6.838;2023-04-24T13:41:36;4.95;;;2.15;;
37701;SDS011;23548;51.196;6.838;2023-04-24T13:44:03;4.57;;;2.50;;
37701;SDS011;23548;51.196;6.838;2023-04-24T13:46:29;6.88;;;2.40;;
37701;SDS011;23548;51.196;6.838;2023-04-24T13:48:56;6.05;;;2.70;;
37701;SDS011;23548;51.196;6.838;2023-04-24T13:51:23;6.43;;;2.90;;
37701;SDS011;23548;51.196;6.838;2023-04-24T13:53:51;7.43;;;2.40;;
37701;SDS011;23548;51.196;6.838;2023-04-24T13:56:16;6.72;;;2.88;;
37701;SDS011;23548;51.196;6.838;2023-04-24T13:58:42;7.75;;;2.47;;
37701;SDS011;23548;51.196;6.838;2023-04-24T14:01:08;5.97;;;2.65;;
37701;SDS011;23548;51.196;6.838;2023-04-24T14:03:34;5.50;;;2.50;;
37701;SDS011;23548;51.196;6.838;2023-04-24T14:06:02;7.00;;;2.38;;
37701;SDS011;23548;51.196;6.838;2023-04-24T14:08:28;4.40;;;2.22;;
37701;SDS011;23548;51.196;6.838;2023-04-24T14:10:54;7.05;;;2.40;;
37701;SDS011;23548;51.196;6.838;2023-04-24T14:13:20;6.45;;;2.50;;
37701;SDS011;23548;51.196;6.838;2023-04-24T14:15:46;6.25;;;2.38;;
37701;SDS011;23548;51.196;6.838;2023-04-24T14:18:12;9.82;;;2.25;;
37701;SDS011;23548;51.196;6.838;2023-04-24T14:20:38;9.48;;;2.70;;
37701;SDS011;23548;51.196;6.838;2023-04-24T14:23:04;6.38;;;2.42;;
37701;SDS011;23548;51.196;6.838;2023-04-24T14:25:30;8.38;;;2.28;;
37701;SDS011;23548;51.196;6.838;2023-04-24T14:27:55;4.13;;;2.10;;
37701;SDS011;23548;51.196;6.838;2023-04-24T14:30:21;6.63;;;2.05;;
37701;SDS011;23548;51.196;6.838;2023-04-24T14:32:48;5.82;;;1.75;;
37701;SDS011;23548;51.196;6.838;2023-04-24T14:35:14;4.00;;;1.95;;
37701;SDS011;23548;51.196;6.838;2023-04-24T14:37:40;3.65;;;1.60;;
37701;SDS011;23548;51.196;6.838;2023-04-24T14:40:06;7.82;;;1.88;;
37701;SDS011;23548;51.196;6.838;2023-04-24T14:42:33;6.25;;;1.70;;
37701;SDS011;23548;51.196;6.838;2023-04-24T14:44:59;6.18;;;1.63;;
37701;SDS011;23548;51.196;6.838;2023-04-24T14:47:25;5.97;;;1.85;;
37701;SDS011;23548;51.196;6.838;2023-04-24T14:49:51;6.28;;;2.00;;
37701;SDS011;23548;51.196;6.838;2023-04-24T14:52:17;2.90;;;1.40;;
37701;SDS011;23548;51.196;6.838;2023-04-24T14:54:42;4.47;;;1.80;;
37701;SDS011;23548;51.196;6.838;2023-04-24T14:57:08;4.95;;;1.90;;
37701;SDS011;23548;51.196;6.838;2023-04-24T14:59:35;4.60;;;1.80;;